sensor_id;sensor_type;location;lat;lon;timestamp;P1;durP1;ratioP1;P2;durP2;ratioP2
26965;SDS011;14522;52.068;4.414;2024-02-14T00:00:07;3.22;;;2.75;;
26965;SDS011;14522;52.068;4.414;2024-02-14T00:02:40;3.03;;;2.70;;
26965;SDS011;14522;52.068;4.414;2024-02-14T00:05:07;4.68;;;2.97;;
26965;SDS011;14522;52.068;4.414;2024-02-14T00:07:34;3.65;;;2.65;;
26965;SDS011;14522;52.068;4.414;2024-02-14T00:10:00;3.90;;;2.58;;
26965;SDS011;14522;52.068;4.414;2024-02-14T00:12:27;4.15;;;2.75;;
26965;SDS011;14522;52.068;4.414;2024-02-14T00:14:53;4.13;;;3.10;;
26965;SDS011;14522;52.068;4.414;2024-02-14T00:17:20;5.90;;;3.15;;
26965;SDS011;14522;52.068;4.414;2024-02-14T00:19:47;4.93;;;2.85;;
26965;SDS011;14522;52.068;4.414;2024-02-14T00:22:14;4.13;;;2.83;;
26965;SDS011;14522;52.068;4.414;2024-02-14T00:24:40;4.93;;;2.72;;
26965;SDS011;14522;52.068;4.414;2024-02-14T00:27:07;4.78;;;2.90;;
26965;SDS011;14522;52.068;4.414;2024-02-14T00:29:33;4.03;;;2.80;;
26965;SDS011;14522;52.068;4.414;2024-02-14T00:32:00;4.35;;;2.65;;
26965;SDS011;14522;52.068;4.414;2024-02-14T00:34:27;4.13;;;3.17;;
26965;SDS011;14522;52.068;4.414;2024-02-14T00:36:54;6.07;;;3.90;;
26965;SDS011;14522;52.068;4.414;2024-02-14T00:39:20;6.00;;;2.78;;
26965;SDS011;14522;52.068;4.414;2024-02-14T00:41:46;3.75;;;3.10;;
26965;SDS011;14522;52.068;4.414;2024-02-14T00:44:13;3.72;;;2.60;;
26965;SDS011;14522;52.068;4.414;2024-02-14T00:46:43;3.58;;;2.75;;
26965;SDS011;14522;52.068;4.414;2024-02-14T00:49:10;4.70;;;3.33;;
26965;SDS011;14522;52.068;4.414;2024-02-14T00:51:37;5.68;;;2.97;;
26965;SDS011;14522;52.068;4.414;2024-02-14T00:54:06;3.83;;;2.92;;
26965;SDS011;14522;52.068;4.414;2024-02-14T00:56:33;5.63;;;3.08;;
26965;SDS011;14522;52.068;4.414;2024-02-14T00:59:00;6.47;;;2.90;;
26965;SDS011;14522;52.068;4.414;2024-02-14T01:01:27;6.07;;;2.88;;
26965;SDS011;14522;52.068;4.414;2024-02-14T01:03:53;4.00;;;2.92;;
26965;SDS011;14522;52.068;4.414;2024-02-14T01:06:20;4.15;;;2.70;;
26965;SDS011;14522;52.068;4.414;2024-02-14T01:08:46;4.93;;;2.55;;
26965;SDS011;14522;52.068;4.414;2024-02-14T01:11:13;4.47;;;2.33;;
26965;SDS011;14522;52.068;4.414;2024-02-14T01:13:39;6.65;;;2.90;;
26965;SDS011;14522;52.068;4.414;2024-02-14T01:16:07;6.30;;;3.05;;
26965;SDS011;14522;52.068;4.414;2024-02-14T01:18:34;8.32;;;3.45;;
26965;SDS011;14522;52.068;4.414;2024-02-14T01:21:00;6.63;;;3.00;;
26965;SDS011;14522;52.068;4.414;2024-02-14T01:23:28;4.63;;;2.35;;
26965;SDS011;14522;52.068;4.414;2024-02-14T01:25:54;5.07;;;2.30;;
26965;SDS011;14522;52.068;4.414;2024-02-14T01:28:21;3.30;;;2.15;;
26965;SDS011;14522;52.068;4.414;2024-02-14T01:30:48;5.30;;;2.08;;
26965;SDS011;14522;52.068;4.414;2024-02-14T01:33:14;5.68;;;3.17;;
26965;SDS011;14522;52.068;4.414;2024-02-14T01:35:43;5.45;;;2.53;;
26965;SDS011;14522;52.068;4.414;2024-02-14T01:38:09;3.40;;;2.83;;
26965;SDS011;14522;52.068;4.414;2024-02-14T01:40:41;3.88;;;2.40;;
26965;SDS011;14522;52.068;4.414;2024-02-14T01:43:09;3.42;;;2.05;;
26965;SDS011;14522;52.068;4.414;2024-02-14T01:45:36;4.47;;;2.72;;
26965;SDS011;14522;52.068;4.414;2024-02-14T01:48:03;4.28;;;1.77;;
26965;SDS011;14522;52.068;4.414;2024-02-14T01:50:33;6.50;;;2.00;;
26965;SDS011;14522;52.068;4.414;2024-02-14T01:53:00;3.55;;;1.80;;
26965;SDS011;14522;52.068;4.414;2024-02-14T01:55:27;4.28;;;2.28;;
26965;SDS011;14522;52.068;4.414;2024-02-14T01:57:54;4.32;;;1.90;;
26965;SDS011;14522;52.068;4.414;2024-02-14T02:00:20;3.58;;;1.80;;
26965;SDS011;14522;52.068;4.414;2024-02-14T02:02:47;4.78;;;2.03;;
26965;SDS011;14522;52.068;4.414;2024-02-14T02:05:14;4.28;;;2.30;;
26965;SDS011;14522;52.068;4.414;2024-02-14T02:07:42;3.88;;;1.55;;
26965;SDS011;14522;52.068;4.414;2024-02-14T02:10:10;3.35;;;1.67;;
26965;SDS011;14522;52.068;4.414;2024-02-14T02:12:37;3.85;;;1.80;;
26965;SDS011;14522;52.068;4.414;2024-02-14T02:15:08;3.70;;;1.77;;
26965;SDS011;14522;52.068;4.414;2024-02-14T02:17:39;6.20;;;1.98;;
26965;SDS011;14522;52.068;4.414;2024-02-14T02:20:06;3.40;;;2.00;;
26965;SDS011;14522;52.068;4.414;2024-02-14T02:22:35;4.10;;;1.95;;
26965;SDS011;14522;52.068;4.414;2024-02-14T02:25:05;3.25;;;1.88;;
26965;SDS011;14522;52.068;4.414;2024-02-14T02:27:33;6.53;;;2.15;;
26965;SDS011;14522;52.068;4.414;2024-02-14T02:30:05;6.38;;;2.03;;
26965;SDS011;14522;52.068;4.414;2024-02-14T02:32:32;6.55;;;2.35;;
26965;SDS011;14522;52.068;4.414;2024-02-14T02:34:58;8.40;;;1.75;;
26965;SDS011;14522;52.068;4.414;2024-02-14T02:37:25;12.45;;;3.17;;
26965;SDS011;14522;52.068;4.414;2024-02-14T02:39:52;8.07;;;2.42;;
26965;SDS011;14522;52.068;4.414;2024-02-14T02:42:18;12.40;;;2.47;;
26965;SDS011;14522;52.068;4.414;2024-02-14T02:44:49;8.55;;;3.28;;
26965;SDS011;14522;52.068;4.414;2024-02-14T02:47:15;8.75;;;2.67;;
26965;SDS011;14522;52.068;4.414;2024-02-14T02:49:43;10.55;;;2.40;;
26965;SDS011;14522;52.068;4.414;2024-02-14T02:52:10;8.32;;;2.55;;
26965;SDS011;14522;52.068;4.414;2024-02-14T02:54:37;9.38;;;2.92;;
26965;SDS011;14522;52.068;4.414;2024-02-14T02:57:07;14.68;;;3.35;;
26965;SDS011;14522;52.068;4.414;2024-02-14T02:59:35;14.43;;;3.10;;
26965;SDS011;14522;52.068;4.414;2024-02-14T03:02:02;14.48;;;2.65;;
26965;SDS011;14522;52.068;4.414;2024-02-14T03:04:29;11.00;;;2.55;;
26965;SDS011;14522;52.068;4.414;2024-02-14T03:07:17;21.13;;;4.57;;
26965;SDS011;14522;52.068;4.414;2024-02-14T03:09:43;9.23;;;2.55;;
26965;SDS011;14522;52.068;4.414;2024-02-14T03:12:10;12.45;;;2.83;;
26965;SDS011;14522;52.068;4.414;2024-02-14T03:14:37;15.07;;;2.80;;
26965;SDS011;14522;52.068;4.414;2024-02-14T03:17:03;10.20;;;2.08;;
26965;SDS011;14522;52.068;4.414;2024-02-14T03:19:30;16.17;;;2.65;;
26965;SDS011;14522;52.068;4.414;2024-02-14T03:21:57;17.85;;;3.30;;
26965;SDS011;14522;52.068;4.414;2024-02-14T03:24:23;14.95;;;2.42;;
26965;SDS011;14522;52.068;4.414;2024-02-14T03:26:52;12.50;;;2.70;;
26965;SDS011;14522;52.068;4.414;2024-02-14T03:29:20;12.90;;;2.53;;
26965;SDS011;14522;52.068;4.414;2024-02-14T03:31:47;15.18;;;2.75;;
26965;SDS011;14522;52.068;4.414;2024-02-14T03:34:14;12.50;;;2.95;;
26965;SDS011;14522;52.068;4.414;2024-02-14T03:36:41;13.45;;;2.90;;
26965;SDS011;14522;52.068;4.414;2024-02-14T03:39:09;17.65;;;3.28;;
26965;SDS011;14522;52.068;4.414;2024-02-14T03:41:36;15.70;;;3.17;;
26965;SDS011;14522;52.068;4.414;2024-02-14T03:44:03;13.45;;;3.33;;
26965;SDS011;14522;52.068;4.414;2024-02-14T03:46:30;14.48;;;3.33;;
26965;SDS011;14522;52.068;4.414;2024-02-14T03:48:56;19.00;;;3.35;;
26965;SDS011;14522;52.068;4.414;2024-02-14T03:51:23;25.70;;;3.88;;
26965;SDS011;14522;52.068;4.414;2024-02-14T03:53:50;9.25;;;2.08;;
26965;SDS011;14522;52.068;4.414;2024-02-14T03:56:17;11.77;;;2.80;;
26965;SDS011;14522;52.068;4.414;2024-02-14T03:58:43;21.70;;;3.75;;
26965;SDS011;14522;52.068;4.414;2024-02-14T04:01:10;13.88;;;3.55;;
26965;SDS011;14522;52.068;4.414;2024-02-14T04:03:36;12.20;;;3.17;;
26965;SDS011;14522;52.068;4.414;2024-02-14T04:06:03;16.42;;;3.15;;
26965;SDS011;14522;52.068;4.414;2024-02-14T04:08:30;19.65;;;4.47;;
26965;SDS011;14522;52.068;4.414;2024-02-14T04:10:57;17.90;;;2.97;;
26965;SDS011;14522;52.068;4.414;2024-02-14T04:13:23;16.25;;;3.03;;
26965;SDS011;14522;52.068;4.414;2024-02-14T04:15:49;12.93;;;2.80;;
26965;SDS011;14522;52.068;4.414;2024-02-14T04:18:16;10.32;;;2.70;;
26965;SDS011;14522;52.068;4.414;2024-02-14T04:20:44;13.27;;;2.95;;
26965;SDS011;14522;52.068;4.414;2024-02-14T04:23:11;16.35;;;3.47;;
26965;SDS011;14522;52.068;4.414;2024-02-14T04:25:37;14.68;;;3.05;;
26965;SDS011;14522;52.068;4.414;2024-02-14T04:28:05;13.88;;;3.20;;
26965;SDS011;14522;52.068;4.414;2024-02-14T04:30:31;19.55;;;3.50;;
26965;SDS011;14522;52.068;4.414;2024-02-14T04:32:58;13.77;;;3.10;;
26965;SDS011;14522;52.068;4.414;2024-02-14T04:35:24;14.88;;;3.10;;
26965;SDS011;14522;52.068;4.414;2024-02-14T04:37:51;9.45;;;2.72;;
26965;SDS011;14522;52.068;4.414;2024-02-14T04:40:19;18.80;;;4.35;;
26965;SDS011;14522;52.068;4.414;2024-02-14T04:42:46;14.57;;;3.10;;
26965;SDS011;14522;52.068;4.414;2024-02-14T04:45:12;16.15;;;4.07;;
26965;SDS011;14522;52.068;4.414;2024-02-14T04:47:39;15.00;;;3.70;;
26965;SDS011;14522;52.068;4.414;2024-02-14T04:50:06;7.65;;;2.28;;
26965;SDS011;14522;52.068;4.414;2024-02-14T04:52:33;12.38;;;3.70;;
26965;SDS011;14522;52.068;4.414;2024-02-14T04:54:59;12.27;;;3.42;;
26965;SDS011;14522;52.068;4.414;2024-02-14T04:57:26;9.60;;;1.95;;
26965;SDS011;14522;52.068;4.414;2024-02-14T04:59:53;8.32;;;2.00;;
26965;SDS011;14522;52.068;4.414;2024-02-14T05:02:19;12.05;;;2.45;;
26965;SDS011;14522;52.068;4.414;2024-02-14T05:04:46;8.45;;;1.80;;
26965;SDS011;14522;52.068;4.414;2024-02-14T05:07:12;8.38;;;1.70;;
26965;SDS011;14522;52.068;4.414;2024-02-14T05:09:39;13.25;;;3.33;;
26965;SDS011;14522;52.068;4.414;2024-02-14T05:12:06;12.07;;;2.75;;
26965;SDS011;14522;52.068;4.414;2024-02-14T05:14:37;11.60;;;2.35;;
26965;SDS011;14522;52.068;4.414;2024-02-14T05:17:04;11.23;;;2.05;;
26965;SDS011;14522;52.068;4.414;2024-02-14T05:19:31;12.52;;;2.53;;
26965;SDS011;14522;52.068;4.414;2024-02-14T05:21:57;11.27;;;2.08;;
26965;SDS011;14522;52.068;4.414;2024-02-14T05:24:24;12.23;;;2.17;;
26965;SDS011;14522;52.068;4.414;2024-02-14T05:26:53;16.70;;;3.35;;
26965;SDS011;14522;52.068;4.414;2024-02-14T05:29:20;8.13;;;2.42;;
26965;SDS011;14522;52.068;4.414;2024-02-14T05:31:46;13.18;;;3.85;;
26965;SDS011;14522;52.068;4.414;2024-02-14T05:34:15;8.80;;;2.17;;
26965;SDS011;14522;52.068;4.414;2024-02-14T05:36:42;16.60;;;2.67;;
26965;SDS011;14522;52.068;4.414;2024-02-14T05:39:12;16.02;;;3.58;;
26965;SDS011;14522;52.068;4.414;2024-02-14T05:41:40;20.45;;;3.55;;
26965;SDS011;14522;52.068;4.414;2024-02-14T05:44:07;14.10;;;3.83;;
26965;SDS011;14522;52.068;4.414;2024-02-14T05:46:33;11.63;;;4.18;;
26965;SDS011;14522;52.068;4.414;2024-02-14T05:48:59;18.52;;;3.50;;
26965;SDS011;14522;52.068;4.414;2024-02-14T05:51:26;18.00;;;3.53;;
26965;SDS011;14522;52.068;4.414;2024-02-14T05:53:53;14.50;;;2.78;;
26965;SDS011;14522;52.068;4.414;2024-02-14T05:56:19;18.02;;;4.03;;
26965;SDS011;14522;52.068;4.414;2024-02-14T05:58:46;17.00;;;3.80;;
26965;SDS011;14522;52.068;4.414;2024-02-14T06:01:12;12.95;;;3.28;;
26965;SDS011;14522;52.068;4.414;2024-02-14T06:03:41;14.57;;;3.80;;
26965;SDS011;14522;52.068;4.414;2024-02-14T06:06:07;14.88;;;3.33;;
26965;SDS011;14522;52.068;4.414;2024-02-14T06:08:34;13.32;;;3.50;;
26965;SDS011;14522;52.068;4.414;2024-02-14T06:11:00;14.07;;;3.58;;
26965;SDS011;14522;52.068;4.414;2024-02-14T06:13:27;11.45;;;3.33;;
26965;SDS011;14522;52.068;4.414;2024-02-14T06:15:53;13.40;;;3.15;;
26965;SDS011;14522;52.068;4.414;2024-02-14T06:18:20;20.15;;;3.50;;
26965;SDS011;14522;52.068;4.414;2024-02-14T06:20:46;14.23;;;3.92;;
26965;SDS011;14522;52.068;4.414;2024-02-14T06:23:13;19.40;;;3.63;;
26965;SDS011;14522;52.068;4.414;2024-02-14T06:25:39;14.20;;;3.72;;
26965;SDS011;14522;52.068;4.414;2024-02-14T06:28:06;10.25;;;3.90;;
26965;SDS011;14522;52.068;4.414;2024-02-14T06:30:32;11.50;;;3.08;;
26965;SDS011;14522;52.068;4.414;2024-02-14T06:32:59;15.55;;;3.80;;
26965;SDS011;14522;52.068;4.414;2024-02-14T06:35:28;15.55;;;4.38;;
26965;SDS011;14522;52.068;4.414;2024-02-14T06:37:56;8.85;;;3.63;;
26965;SDS011;14522;52.068;4.414;2024-02-14T06:40:30;9.68;;;2.85;;
26965;SDS011;14522;52.068;4.414;2024-02-14T06:42:56;8.77;;;3.15;;
26965;SDS011;14522;52.068;4.414;2024-02-14T06:45:28;10.00;;;3.33;;
26965;SDS011;14522;52.068;4.414;2024-02-14T06:47:54;10.50;;;2.95;;
26965;SDS011;14522;52.068;4.414;2024-02-14T06:50:21;9.80;;;3.40;;
26965;SDS011;14522;52.068;4.414;2024-02-14T06:52:48;8.38;;;4.03;;
26965;SDS011;14522;52.068;4.414;2024-02-14T06:55:14;15.88;;;3.67;;
26965;SDS011;14522;52.068;4.414;2024-02-14T06:57:41;10.93;;;3.58;;
26965;SDS011;14522;52.068;4.414;2024-02-14T07:00:08;10.55;;;2.80;;
26965;SDS011;14522;52.068;4.414;2024-02-14T07:02:35;9.02;;;3.05;;
26965;SDS011;14522;52.068;4.414;2024-02-14T07:05:02;8.65;;;2.85;;
26965;SDS011;14522;52.068;4.414;2024-02-14T07:07:28;11.77;;;3.25;;
26965;SDS011;14522;52.068;4.414;2024-02-14T07:09:55;13.35;;;3.13;;
26965;SDS011;14522;52.068;4.414;2024-02-14T07:12:21;11.60;;;3.70;;
26965;SDS011;14522;52.068;4.414;2024-02-14T07:14:48;11.38;;;3.97;;
26965;SDS011;14522;52.068;4.414;2024-02-14T07:17:14;8.52;;;2.67;;
26965;SDS011;14522;52.068;4.414;2024-02-14T07:19:41;12.85;;;3.50;;
26965;SDS011;14522;52.068;4.414;2024-02-14T07:22:10;8.68;;;3.38;;
26965;SDS011;14522;52.068;4.414;2024-02-14T07:24:36;13.07;;;3.00;;
26965;SDS011;14522;52.068;4.414;2024-02-14T07:27:03;8.10;;;2.88;;
26965;SDS011;14522;52.068;4.414;2024-02-14T07:29:29;15.43;;;3.42;;
26965;SDS011;14522;52.068;4.414;2024-02-14T07:31:56;6.55;;;2.67;;
26965;SDS011;14522;52.068;4.414;2024-02-14T07:34:25;7.72;;;2.90;;
26965;SDS011;14522;52.068;4.414;2024-02-14T07:36:52;7.93;;;2.38;;
26965;SDS011;14522;52.068;4.414;2024-02-14T07:39:18;7.20;;;2.83;;
26965;SDS011;14522;52.068;4.414;2024-02-14T07:41:44;10.70;;;2.70;;
26965;SDS011;14522;52.068;4.414;2024-02-14T07:44:12;7.75;;;2.35;;
26965;SDS011;14522;52.068;4.414;2024-02-14T07:46:39;7.15;;;2.47;;
26965;SDS011;14522;52.068;4.414;2024-02-14T07:49:06;8.00;;;2.92;;
26965;SDS011;14522;52.068;4.414;2024-02-14T07:51:33;8.02;;;2.90;;
26965;SDS011;14522;52.068;4.414;2024-02-14T07:54:05;7.35;;;2.55;;
26965;SDS011;14522;52.068;4.414;2024-02-14T07:56:32;6.82;;;2.50;;
26965;SDS011;14522;52.068;4.414;2024-02-14T07:58:59;4.82;;;1.90;;
26965;SDS011;14522;52.068;4.414;2024-02-14T08:01:26;6.75;;;2.60;;
26965;SDS011;14522;52.068;4.414;2024-02-14T08:03:53;7.35;;;2.80;;
26965;SDS011;14522;52.068;4.414;2024-02-14T08:06:19;5.40;;;3.17;;
26965;SDS011;14522;52.068;4.414;2024-02-14T08:08:46;5.90;;;2.53;;
26965;SDS011;14522;52.068;4.414;2024-02-14T08:11:12;7.38;;;2.38;;
26965;SDS011;14522;52.068;4.414;2024-02-14T08:13:39;4.78;;;2.67;;
26965;SDS011;14522;52.068;4.414;2024-02-14T08:16:06;5.90;;;2.00;;
26965;SDS011;14522;52.068;4.414;2024-02-14T08:18:33;3.33;;;1.85;;
26965;SDS011;14522;52.068;4.414;2024-02-14T08:20:59;2.58;;;1.85;;
26965;SDS011;14522;52.068;4.414;2024-02-14T08:23:26;2.50;;;1.90;;
26965;SDS011;14522;52.068;4.414;2024-02-14T08:25:52;2.30;;;1.95;;
26965;SDS011;14522;52.068;4.414;2024-02-14T08:28:19;3.33;;;1.85;;
26965;SDS011;14522;52.068;4.414;2024-02-14T08:30:46;3.45;;;2.20;;
26965;SDS011;14522;52.068;4.414;2024-02-14T08:33:14;2.60;;;1.90;;
26965;SDS011;14522;52.068;4.414;2024-02-14T08:35:40;2.42;;;1.90;;
26965;SDS011;14522;52.068;4.414;2024-02-14T08:38:09;3.15;;;2.13;;
26965;SDS011;14522;52.068;4.414;2024-02-14T08:40:35;3.28;;;1.70;;
26965;SDS011;14522;52.068;4.414;2024-02-14T08:43:03;2.50;;;1.65;;
26965;SDS011;14522;52.068;4.414;2024-02-14T08:45:31;3.60;;;1.88;;
26965;SDS011;14522;52.068;4.414;2024-02-14T08:47:58;2.00;;;1.80;;
26965;SDS011;14522;52.068;4.414;2024-02-14T08:50:24;6.22;;;2.30;;
26965;SDS011;14522;52.068;4.414;2024-02-14T08:52:51;2.80;;;1.90;;
26965;SDS011;14522;52.068;4.414;2024-02-14T08:55:17;5.78;;;2.35;;
26965;SDS011;14522;52.068;4.414;2024-02-14T08:57:45;2.65;;;2.13;;
26965;SDS011;14522;52.068;4.414;2024-02-14T09:00:14;2.47;;;2.08;;
26965;SDS011;14522;52.068;4.414;2024-02-14T09:02:41;4.03;;;2.28;;
26965;SDS011;14522;52.068;4.414;2024-02-14T09:05:08;3.30;;;2.17;;
26965;SDS011;14522;52.068;4.414;2024-02-14T09:07:35;3.22;;;2.50;;
26965;SDS011;14522;52.068;4.414;2024-02-14T09:10:02;3.95;;;2.20;;
26965;SDS011;14522;52.068;4.414;2024-02-14T09:12:29;4.00;;;1.90;;
26965;SDS011;14522;52.068;4.414;2024-02-14T09:14:56;4.43;;;2.35;;
26965;SDS011;14522;52.068;4.414;2024-02-14T09:17:23;1.73;;;1.60;;
26965;SDS011;14522;52.068;4.414;2024-02-14T09:19:50;3.60;;;2.20;;
26965;SDS011;14522;52.068;4.414;2024-02-14T09:22:18;1.80;;;1.52;;
26965;SDS011;14522;52.068;4.414;2024-02-14T09:24:47;5.15;;;1.83;;
26965;SDS011;14522;52.068;4.414;2024-02-14T09:27:14;3.00;;;1.50;;
26965;SDS011;14522;52.068;4.414;2024-02-14T09:29:41;2.88;;;1.90;;
26965;SDS011;14522;52.068;4.414;2024-02-14T09:32:10;2.50;;;1.80;;
26965;SDS011;14522;52.068;4.414;2024-02-14T09:34:37;2.08;;;1.50;;
26965;SDS011;14522;52.068;4.414;2024-02-14T09:37:04;5.32;;;1.80;;
26965;SDS011;14522;52.068;4.414;2024-02-14T09:39:32;1.23;;;1.13;;
26965;SDS011;14522;52.068;4.414;2024-02-14T09:42:03;2.42;;;1.67;;
26965;SDS011;14522;52.068;4.414;2024-02-14T09:44:34;3.53;;;1.75;;
26965;SDS011;14522;52.068;4.414;2024-02-14T09:47:01;2.50;;;1.75;;
26965;SDS011;14522;52.068;4.414;2024-02-14T09:49:27;2.05;;;1.77;;
26965;SDS011;14522;52.068;4.414;2024-02-14T09:51:55;2.70;;;1.65;;
26965;SDS011;14522;52.068;4.414;2024-02-14T09:54:21;2.95;;;1.70;;
26965;SDS011;14522;52.068;4.414;2024-02-14T09:56:49;2.70;;;1.75;;
26965;SDS011;14522;52.068;4.414;2024-02-14T09:59:17;2.05;;;1.65;;
26965;SDS011;14522;52.068;4.414;2024-02-14T10:01:44;3.78;;;1.85;;
26965;SDS011;14522;52.068;4.414;2024-02-14T10:04:12;3.05;;;1.70;;
26965;SDS011;14522;52.068;4.414;2024-02-14T10:06:39;2.03;;;1.45;;
26965;SDS011;14522;52.068;4.414;2024-02-14T10:09:05;1.70;;;1.60;;
26965;SDS011;14522;52.068;4.414;2024-02-14T10:11:33;2.58;;;1.58;;
26965;SDS011;14522;52.068;4.414;2024-02-14T10:14:00;2.38;;;1.55;;
26965;SDS011;14522;52.068;4.414;2024-02-14T10:16:29;2.47;;;1.33;;
26965;SDS011;14522;52.068;4.414;2024-02-14T10:18:56;3.25;;;1.27;;
26965;SDS011;14522;52.068;4.414;2024-02-14T10:21:22;2.53;;;1.17;;
26965;SDS011;14522;52.068;4.414;2024-02-14T10:23:52;1.60;;;1.25;;
26965;SDS011;14522;52.068;4.414;2024-02-14T10:26:19;1.80;;;1.20;;
26965;SDS011;14522;52.068;4.414;2024-02-14T10:28:46;1.83;;;1.23;;
26965;SDS011;14522;52.068;4.414;2024-02-14T10:31:15;1.35;;;0.95;;
26965;SDS011;14522;52.068;4.414;2024-02-14T10:33:42;1.58;;;1.05;;
26965;SDS011;14522;52.068;4.414;2024-02-14T10:36:09;1.05;;;0.77;;
26965;SDS011;14522;52.068;4.414;2024-02-14T10:38:38;0.80;;;0.80;;
26965;SDS011;14522;52.068;4.414;2024-02-14T10:41:05;2.10;;;1.05;;
26965;SDS011;14522;52.068;4.414;2024-02-14T10:43:36;1.38;;;1.25;;
26965;SDS011;14522;52.068;4.414;2024-02-14T10:46:08;2.13;;;1.15;;
26965;SDS011;14522;52.068;4.414;2024-02-14T10:48:38;1.20;;;0.93;;
26965;SDS011;14522;52.068;4.414;2024-02-14T10:51:05;1.95;;;1.10;;
26965;SDS011;14522;52.068;4.414;2024-02-14T10:53:34;1.27;;;1.17;;
26965;SDS011;14522;52.068;4.414;2024-02-14T10:56:01;1.33;;;1.20;;
26965;SDS011;14522;52.068;4.414;2024-02-14T10:58:28;1.40;;;1.30;;
26965;SDS011;14522;52.068;4.414;2024-02-14T11:00:56;0.77;;;0.77;;
26965;SDS011;14522;52.068;4.414;2024-02-14T11:03:23;2.53;;;1.25;;
26965;SDS011;14522;52.068;4.414;2024-02-14T11:05:49;2.00;;;1.25;;
26965;SDS011;14522;52.068;4.414;2024-02-14T11:08:19;4.38;;;1.20;;
26965;SDS011;14522;52.068;4.414;2024-02-14T11:10:53;1.35;;;1.25;;
26965;SDS011;14522;52.068;4.414;2024-02-14T11:13:21;1.67;;;1.10;;
26965;SDS011;14522;52.068;4.414;2024-02-14T11:15:51;2.97;;;1.10;;
26965;SDS011;14522;52.068;4.414;2024-02-14T11:18:24;1.75;;;1.50;;
26965;SDS011;14522;52.068;4.414;2024-02-14T11:20:51;1.80;;;1.40;;
26965;SDS011;14522;52.068;4.414;2024-02-14T11:23:21;2.13;;;1.42;;
26965;SDS011;14522;52.068;4.414;2024-02-14T11:25:48;1.80;;;1.30;;
26965;SDS011;14522;52.068;4.414;2024-02-14T11:28:15;2.05;;;1.48;;
26965;SDS011;14522;52.068;4.414;2024-02-14T11:30:42;2.42;;;1.52;;
26965;SDS011;14522;52.068;4.414;2024-02-14T11:33:16;1.33;;;0.93;;
26965;SDS011;14522;52.068;4.414;2024-02-14T11:35:45;1.67;;;1.00;;
26965;SDS011;14522;52.068;4.414;2024-02-14T11:38:12;1.50;;;1.20;;
26965;SDS011;14522;52.068;4.414;2024-02-14T11:40:38;1.48;;;1.30;;
26965;SDS011;14522;52.068;4.414;2024-02-14T11:43:15;1.75;;;1.10;;
26965;SDS011;14522;52.068;4.414;2024-02-14T11:45:43;3.22;;;1.40;;
26965;SDS011;14522;52.068;4.414;2024-02-14T11:48:12;3.22;;;1.58;;
26965;SDS011;14522;52.068;4.414;2024-02-14T11:50:39;1.52;;;1.17;;
26965;SDS011;14522;52.068;4.414;2024-02-14T11:53:07;1.02;;;0.82;;
26965;SDS011;14522;52.068;4.414;2024-02-14T11:55:37;1.85;;;1.13;;
26965;SDS011;14522;52.068;4.414;2024-02-14T12:00:34;2.30;;;1.10;;
26965;SDS011;14522;52.068;4.414;2024-02-14T12:03:02;1.30;;;1.10;;
26965;SDS011;14522;52.068;4.414;2024-02-14T12:05:29;1.10;;;1.00;;
26965;SDS011;14522;52.068;4.414;2024-02-14T12:07:55;1.55;;;0.90;;
26965;SDS011;14522;52.068;4.414;2024-02-14T12:10:22;4.35;;;1.27;;
26965;SDS011;14522;52.068;4.414;2024-02-14T12:12:48;1.20;;;1.10;;
26965;SDS011;14522;52.068;4.414;2024-02-14T12:15:15;1.20;;;1.10;;
26965;SDS011;14522;52.068;4.414;2024-02-14T12:17:42;1.27;;;1.08;;
26965;SDS011;14522;52.068;4.414;2024-02-14T12:20:09;1.63;;;1.23;;
26965;SDS011;14522;52.068;4.414;2024-02-14T12:22:40;4.38;;;1.40;;
26965;SDS011;14522;52.068;4.414;2024-02-14T12:25:09;1.95;;;1.10;;
26965;SDS011;14522;52.068;4.414;2024-02-14T12:27:40;1.70;;;1.35;;
26965;SDS011;14522;52.068;4.414;2024-02-14T12:30:07;1.42;;;1.10;;
26965;SDS011;14522;52.068;4.414;2024-02-14T12:32:34;2.67;;;1.17;;
26965;SDS011;14522;52.068;4.414;2024-02-14T12:35:01;1.45;;;1.20;;
26965;SDS011;14522;52.068;4.414;2024-02-14T12:37:28;1.95;;;1.13;;
26965;SDS011;14522;52.068;4.414;2024-02-14T12:39:54;2.88;;;1.48;;
26965;SDS011;14522;52.068;4.414;2024-02-14T12:42:21;1.20;;;1.10;;
26965;SDS011;14522;52.068;4.414;2024-02-14T12:44:52;2.67;;;0.98;;
26965;SDS011;14522;52.068;4.414;2024-02-14T12:47:19;0.68;;;0.68;;
26965;SDS011;14522;52.068;4.414;2024-02-14T12:49:48;1.40;;;1.30;;
26965;SDS011;14522;52.068;4.414;2024-02-14T12:52:15;1.58;;;1.00;;
26965;SDS011;14522;52.068;4.414;2024-02-14T12:54:43;1.02;;;0.93;;
26965;SDS011;14522;52.068;4.414;2024-02-14T12:57:09;2.97;;;0.98;;
26965;SDS011;14522;52.068;4.414;2024-02-14T12:59:36;2.10;;;1.23;;
26965;SDS011;14522;52.068;4.414;2024-02-14T13:02:03;1.42;;;1.05;;
26965;SDS011;14522;52.068;4.414;2024-02-14T13:04:32;1.10;;;0.82;;
26965;SDS011;14522;52.068;4.414;2024-02-14T13:06:59;2.35;;;1.40;;
26965;SDS011;14522;52.068;4.414;2024-02-14T13:09:26;2.65;;;1.20;;
26965;SDS011;14522;52.068;4.414;2024-02-14T13:11:52;5.70;;;1.23;;
26965;SDS011;14522;52.068;4.414;2024-02-14T13:14:19;1.75;;;1.10;;
26965;SDS011;14522;52.068;4.414;2024-02-14T13:16:45;0.70;;;0.68;;
26965;SDS011;14522;52.068;4.414;2024-02-14T13:19:12;1.08;;;0.93;;
26965;SDS011;14522;52.068;4.414;2024-02-14T13:21:43;2.10;;;1.00;;
26965;SDS011;14522;52.068;4.414;2024-02-14T13:24:12;1.42;;;0.95;;
26965;SDS011;14522;52.068;4.414;2024-02-14T13:26:39;1.05;;;0.70;;
26965;SDS011;14522;52.068;4.414;2024-02-14T13:29:06;1.38;;;0.73;;
26965;SDS011;14522;52.068;4.414;2024-02-14T13:31:33;0.88;;;0.50;;
26965;SDS011;14522;52.068;4.414;2024-02-14T13:33:59;1.10;;;0.60;;
26965;SDS011;14522;52.068;4.414;2024-02-14T13:36:26;0.80;;;0.65;;
26965;SDS011;14522;52.068;4.414;2024-02-14T13:38:53;2.53;;;0.55;;
26965;SDS011;14522;52.068;4.414;2024-02-14T13:41:19;1.63;;;0.50;;
26965;SDS011;14522;52.068;4.414;2024-02-14T13:43:46;0.60;;;0.32;;
26965;SDS011;14522;52.068;4.414;2024-02-14T13:46:13;0.52;;;0.30;;
26965;SDS011;14522;52.068;4.414;2024-02-14T13:48:40;1.38;;;0.30;;
26965;SDS011;14522;52.068;4.414;2024-02-14T13:51:07;0.40;;;0.30;;
26965;SDS011;14522;52.068;4.414;2024-02-14T13:53:35;0.88;;;0.40;;
26965;SDS011;14522;52.068;4.414;2024-02-14T13:56:01;1.35;;;0.47;;
26965;SDS011;14522;52.068;4.414;2024-02-14T13:58:28;0.38;;;0.30;;
26965;SDS011;14522;52.068;4.414;2024-02-14T14:00:54;0.70;;;0.25;;
26965;SDS011;14522;52.068;4.414;2024-02-14T14:03:21;0.85;;;0.20;;
26965;SDS011;14522;52.068;4.414;2024-02-14T14:05:48;0.50;;;0.30;;
26965;SDS011;14522;52.068;4.414;2024-02-14T14:08:16;0.70;;;0.30;;
26965;SDS011;14522;52.068;4.414;2024-02-14T14:10:43;1.48;;;0.32;;
26965;SDS011;14522;52.068;4.414;2024-02-14T14:13:11;3.40;;;0.40;;
26965;SDS011;14522;52.068;4.414;2024-02-14T14:15:38;0.73;;;0.35;;
26965;SDS011;14522;52.068;4.414;2024-02-14T14:18:04;1.05;;;0.50;;
26965;SDS011;14522;52.068;4.414;2024-02-14T14:20:31;0.57;;;0.43;;
26965;SDS011;14522;52.068;4.414;2024-02-14T14:22:58;3.70;;;0.50;;
26965;SDS011;14522;52.068;4.414;2024-02-14T14:25:25;0.85;;;0.32;;
26965;SDS011;14522;52.068;4.414;2024-02-14T14:27:51;1.17;;;0.50;;
26965;SDS011;14522;52.068;4.414;2024-02-14T14:30:18;2.65;;;0.60;;
26965;SDS011;14522;52.068;4.414;2024-02-14T14:32:44;1.75;;;0.52;;
26965;SDS011;14522;52.068;4.414;2024-02-14T14:35:11;1.42;;;0.50;;
26965;SDS011;14522;52.068;4.414;2024-02-14T14:37:38;3.38;;;0.50;;
26965;SDS011;14522;52.068;4.414;2024-02-14T14:40:06;4.55;;;0.90;;
26965;SDS011;14522;52.068;4.414;2024-02-14T14:42:35;4.15;;;0.75;;
26965;SDS011;14522;52.068;4.414;2024-02-14T14:45:01;3.45;;;1.00;;